Time;durP1;ratioP1;P1;durP2;ratioP2;P2;SDS_P1;SDS_P2;PMS_P1;PMS_P2;Temp;Humidity;BMP_temperature;BMP_pressure;BME280_temperature;BME280_humidity;BME280_pressure;Samples;Min_cycle;Max_cycle;Signal;HPM_P1;HPM_P2
2021/11/16 00:01:01;;;;;;;105.70;43.80;;;;;;;5.80;85.41;101444.80;103124;1312;22571;-59
2021/11/16 00:03:32;;;;;;;99.80;42.70;;;;;;;5.79;85.34;101440.95;103170;1311;22560;-59
2021/11/16 00:06:03;;;;;;;110.10;45.20;;;;;;;5.76;85.36;101441.61;103297;1313;22573;-59
2021/11/16 00:08:34;;;;;;;121.80;51.10;;;;;;;5.74;85.38;101440.52;103041;1312;24242;-57
2021/11/16 00:11:05;;;;;;;120.60;48.00;;;;;;;5.73;85.41;101445.54;103119;1311;24432;-60
2021/11/16 00:13:36;;;;;;;119.10;47.80;;;;;;;5.72;85.43;101442.62;103059;1312;24253;-60
2021/11/16 00:16:08;;;;;;;116.40;46.90;;;;;;;5.72;85.55;101437.95;103075;1311;22565;-57
2021/11/16 00:18:39;;;;;;;110.20;46.50;;;;;;;5.72;85.45;101435.98;103159;1309;22620;-60
2021/11/16 00:21:12;;;;;;;105.90;46.00;;;;;;;5.71;85.53;101439.39;103200;1315;23153;-59
2021/11/16 00:23:43;;;;;;;108.20;47.70;;;;;;;5.70;85.53;101440.44;103053;1311;22698;-58
2021/11/16 00:26:14;;;;;;;98.80;44.40;;;;;;;5.69;85.49;101435.21;103085;1316;24769;-58
2021/11/16 00:28:45;;;;;;;93.50;39.60;;;;;;;5.68;85.55;101438.32;103062;1309;24309;-58
2021/11/16 00:31:15;;;;;;;106.00;45.30;;;;;;;5.67;85.50;101435.64;103026;1313;22581;-58
2021/11/16 00:33:46;;;;;;;103.00;44.10;;;;;;;5.67;85.63;101441.02;103091;1312;23017;-59
2021/11/16 00:36:18;;;;;;;105.50;44.90;;;;;;;5.67;85.57;101445.70;103022;1310;22561;-58
2021/11/16 00:38:49;;;;;;;105.10;45.70;;;;;;;5.66;85.64;101450.85;102853;1315;22601;-58
2021/11/16 00:41:20;;;;;;;99.90;44.00;;;;;;;5.67;85.69;101454.16;103153;1311;25380;-60
2021/11/16 00:43:52;;;;;;;108.00;46.60;;;;;;;5.67;85.70;101453.61;103159;1310;25588;-59
2021/11/16 00:46:24;;;;;;;102.10;43.20;;;;;;;5.68;85.70;101454.08;103182;1311;23927;-59
2021/11/16 00:48:54;;;;;;;110.40;46.10;;;;;;;5.68;85.70;101458.82;103228;1314;25444;-58
2021/11/16 00:51:26;;;;;;;105.90;44.20;;;;;;;5.68;85.65;101454.07;103174;1313;22577;-60
2021/11/16 00:53:57;;;;;;;112.60;45.70;;;;;;;5.69;85.66;101450.89;103031;1316;25339;-59
2021/11/16 00:56:28;;;;;;;115.50;45.20;;;;;;;5.68;85.63;101450.11;103079;1311;24439;-60
2021/11/16 00:58:59;;;;;;;109.60;44.20;;;;;;;5.67;85.63;101445.84;103194;1314;22574;-59
2021/11/16 01:01:30;;;;;;;116.30;46.40;;;;;;;5.66;85.68;101442.16;103043;1311;25520;-58
2021/11/16 01:04:01;;;;;;;118.70;46.30;;;;;;;5.64;85.71;101440.98;103074;1316;22810;-59
2021/11/16 01:06:32;;;;;;;110.30;46.90;;;;;;;5.64;85.75;101439.72;103086;1312;22621;-58
2021/11/16 01:09:03;;;;;;;112.00;44.40;;;;;;;5.64;85.74;101440.83;103037;1309;24684;-59
2021/11/16 01:11:36;;;;;;;112.90;48.00;;;;;;;5.63;85.76;101438.38;103049;1311;25323;-58
2021/11/16 01:14:07;;;;;;;113.90;46.80;;;;;;;5.64;85.84;101436.88;103018;1311;25428;-62
2021/11/16 01:16:40;;;;;;;115.50;46.80;;;;;;;5.64;85.78;101437.11;103158;1311;22593;-59
2021/11/16 01:19:12;;;;;;;114.70;45.20;;;;;;;5.64;85.78;101431.33;103296;1316;22606;-59
2021/11/16 01:21:43;;;;;;;118.70;47.70;;;;;;;5.64;85.81;101430.94;103199;1316;22716;-58
2021/11/16 01:24:14;;;;;;;116.50;47.90;;;;;;;5.63;85.88;101425.95;103059;1313;25321;-60
2021/11/16 01:26:46;;;;;;;117.70;46.20;;;;;;;5.62;85.87;101422.17;103087;1313;24295;-61
2021/11/16 01:29:19;;;;;;;115.00;46.70;;;;;;;5.60;85.85;101423.79;103364;1314;22691;-62
2021/11/16 01:31:53;;;;;;;117.90;46.40;;;;;;;5.57;85.81;101421.06;103205;1310;24326;-61
2021/11/16 01:34:28;;;;;;;118.50;50.50;;;;;;;5.55;85.88;101420.61;102997;1312;22637;-57
2021/11/16 01:37:00;;;;;;;104.50;44.10;;;;;;;5.55;86.00;101419.73;103277;1314;22585;-60
2021/11/16 01:39:31;;;;;;;106.70;45.30;;;;;;;5.55;86.02;101422.75;103385;1309;24572;-59
2021/11/16 01:42:02;;;;;;;116.10;46.40;;;;;;;5.54;85.96;101421.11;103109;1310;22641;-59
2021/11/16 01:44:33;;;;;;;112.80;48.50;;;;;;;5.54;86.08;101419.76;103097;1311;24323;-59
2021/11/16 01:47:04;;;;;;;108.60;46.80;;;;;;;5.55;86.07;101422.20;103084;1311;22605;-59
2021/11/16 01:49:35;;;;;;;115.40;46.10;;;;;;;5.55;86.08;101419.34;103245;1311;22584;-60
2021/11/16 01:52:08;;;;;;;114.60;46.50;;;;;;;5.54;86.03;101416.98;103563;1313;25557;-59
2021/11/16 01:54:39;;;;;;;119.30;46.90;;;;;;;5.54;86.04;101412.32;103528;1309;22586;-58
2021/11/16 01:57:11;;;;;;;101.20;43.30;;;;;;;5.53;86.16;101419.69;103362;1314;22634;-59
2021/11/16 01:59:42;;;;;;;106.70;43.10;;;;;;;5.52;86.17;101414.58;103420;1311;22585;-60
2021/11/16 02:02:16;;;;;;;117.50;45.80;;;;;;;5.51;86.23;101418.84;103306;1312;22662;-60
2021/11/16 02:04:47;;;;;;;117.20;45.90;;;;;;;5.49;86.19;101413.41;103134;1311;22560;-57
2021/11/16 02:07:18;;;;;;;118.60;48.60;;;;;;;5.48;86.28;101409.23;103102;1313;22672;-59
2021/11/16 02:09:49;;;;;;;124.90;52.20;;;;;;;5.47;86.31;101409.87;103127;1316;25345;-58
2021/11/16 02:12:20;;;;;;;112.00;46.20;;;;;;;5.47;86.39;101414.95;103108;1312;25281;-60
2021/11/16 02:14:51;;;;;;;124.50;50.60;;;;;;;5.46;86.39;101413.36;103053;1315;25324;-59
2021/11/16 02:17:22;;;;;;;122.70;53.60;;;;;;;5.45;86.40;101413.54;103245;1311;22564;-62
2021/11/16 02:19:53;;;;;;;126.30;50.80;;;;;;;5.45;86.41;101411.31;103118;1313;22637;-59
2021/11/16 02:22:24;;;;;;;117.30;49.90;;;;;;;5.43;86.41;101410.24;103083;1311;22698;-59
2021/11/16 02:24:56;;;;;;;125.70;52.60;;;;;;;5.40;86.45;101404.42;103174;1315;24090;-59
2021/11/16 02:27:29;;;;;;;129.80;52.60;;;;;;;5.40;86.56;101406.02;103376;1309;24308;-59
2021/11/16 02:30:00;;;;;;;132.60;53.80;;;;;;;5.40;86.61;101403.00;103078;1315;23730;-58
2021/11/16 02:32:31;;;;;;;126.00;48.60;;;;;;;5.40;86.63;101399.28;103192;1314;22557;-62
2021/11/16 02:35:02;;;;;;;133.70;54.70;;;;;;;5.39;86.67;101404.20;103198;1312;22600;-59
2021/11/16 02:37:34;;;;;;;126.40;53.80;;;;;;;5.40;86.69;101402.85;103073;1314;22587;-59
2021/11/16 02:40:08;;;;;;;143.10;56.50;;;;;;;5.42;86.71;101402.28;103155;1316;22643;-61
2021/11/16 02:42:40;;;;;;;146.90;53.00;;;;;;;5.43;86.75;101398.77;103081;1316;22715;-59
2021/11/16 02:45:12;;;;;;;131.10;50.70;;;;;;;5.43;86.73;101399.33;103331;1311;22617;-59
2021/11/16 02:47:44;;;;;;;134.20;50.00;;;;;;;5.44;86.72;101399.39;103175;1311;22709;-61
2021/11/16 02:50:16;;;;;;;130.20;49.90;;;;;;;5.44;86.71;101391.09;103093;1312;26537;-61
2021/11/16 02:52:49;;;;;;;113.30;45.60;;;;;;;5.44;86.71;101390.45;103132;1311;26503;-59
2021/11/16 02:55:21;;;;;;;128.00;46.70;;;;;;;5.44;86.79;101382.53;103126;1312;22558;-59
2021/11/16 02:57:52;;;;;;;126.60;49.30;;;;;;;5.43;86.75;101376.92;103160;1310;25415;-59
2021/11/16 03:00:22;;;;;;;120.50;49.70;;;;;;;5.45;86.78;101384.83;103199;1312;25316;-60
2021/11/16 03:02:54;;;;;;;124.90;48.30;;;;;;;5.46;86.78;101380.99;103049;1309;25349;-59
2021/11/16 03:05:31;;;;;;;133.40;53.50;;;;;;;5.47;86.76;101376.25;103077;1309;26618;-58
2021/11/16 03:08:02;;;;;;;126.10;49.10;;;;;;;5.47;86.85;101371.89;102955;1313;23183;-59
2021/11/16 03:10:33;;;;;;;119.20;48.00;;;;;;;5.48;86.88;101379.55;102986;1311;23104;-60
2021/11/16 03:13:04;;;;;;;116.80;47.10;;;;;;;5.48;86.87;101380.97;103267;1316;22700;-59
2021/11/16 03:15:35;;;;;;;118.50;45.90;;;;;;;5.49;86.97;101380.33;103123;1311;22576;-61
2021/11/16 03:18:06;;;;;;;128.80;48.90;;;;;;;5.49;86.91;101381.37;103074;1311;24340;-60
2021/11/16 03:20:38;;;;;;;127.90;49.30;;;;;;;5.50;86.94;101381.02;103088;1309;25359;-59
2021/11/16 03:23:12;;;;;;;115.10;45.30;;;;;;;5.51;86.97;101378.09;103098;1309;22645;-60
2021/11/16 03:25:48;;;;;;;132.20;48.50;;;;;;;5.51;86.97;101376.59;103177;1311;22579;-59
2021/11/16 03:28:22;;;;;;;118.40;48.30;;;;;;;5.52;87.00;101371.11;103137;1312;22564;-59
2021/11/16 03:30:55;;;;;;;119.20;47.30;;;;;;;5.54;86.95;101379.48;103175;1310;22592;-59
2021/11/16 03:33:27;;;;;;;126.80;51.50;;;;;;;5.55;86.99;101378.59;103182;1310;22582;-58
2021/11/16 03:35:58;;;;;;;128.60;49.70;;;;;;;5.58;86.97;101384.01;103176;1312;25792;-58
2021/11/16 03:38:31;;;;;;;119.50;48.90;;;;;;;5.58;86.96;101386.53;103431;1309;23165;-61
2021/11/16 03:41:02;;;;;;;132.00;51.30;;;;;;;5.58;87.01;101386.62;103372;1311;24371;-59
2021/11/16 03:43:33;;;;;;;126.30;49.50;;;;;;;5.60;87.01;101385.09;103116;1312;22578;-58
2021/11/16 03:46:06;;;;;;;121.60;47.30;;;;;;;5.61;87.06;101385.94;103283;1310;22666;-59
2021/11/16 03:48:37;;;;;;;143.20;52.30;;;;;;;5.61;87.03;101386.58;103296;1312;23012;-57
2021/11/16 03:51:08;;;;;;;124.50;49.00;;;;;;;5.60;87.08;101379.31;103161;1311;25426;-59
2021/11/16 03:53:41;;;;;;;133.00;49.00;;;;;;;5.61;87.12;101381.27;103077;1312;24340;-60
2021/11/16 03:56:14;;;;;;;129.20;47.80;;;;;;;5.61;87.10;101375.88;103135;1311;22561;-58
2021/11/16 03:58:46;;;;;;;128.10;48.80;;;;;;;5.62;87.13;101372.55;103128;1311;25431;-58
2021/11/16 04:01:18;;;;;;;122.30;45.80;;;;;;;5.64;87.16;101368.79;103172;1310;22973;-62
2021/11/16 04:03:48;;;;;;;129.00;48.60;;;;;;;5.66;87.09;101366.40;103148;1311;22706;-59
2021/11/16 04:06:21;;;;;;;125.30;50.20;;;;;;;5.67;87.16;101355.05;103028;1315;22564;-59
2021/11/16 04:08:52;;;;;;;132.50;51.30;;;;;;;5.68;87.14;101358.37;103083;1310;22588;-57
2021/11/16 04:11:23;;;;;;;122.40;47.80;;;;;;;5.68;87.11;101360.11;103024;1311;22628;-60
2021/11/16 04:13:54;;;;;;;132.00;50.10;;;;;;;5.67;87.04;101349.67;103093;1311;23043;-60
2021/11/16 04:16:25;;;;;;;124.90;50.70;;;;;;;5.67;87.08;101349.91;103100;1311;22570;-59
2021/11/16 04:18:56;;;;;;;127.60;49.00;;;;;;;5.67;87.10;101347.21;102988;1309;22604;-60
2021/11/16 04:21:26;;;;;;;141.50;54.20;;;;;;;5.69;87.12;101349.41;102824;1314;22680;-60
2021/11/16 04:23:57;;;;;;;132.90;56.50;;;;;;;5.69;87.15;101346.95;102791;1309;24320;-59
2021/11/16 04:26:29;;;;;;;134.60;53.70;;;;;;;5.69;87.13;101347.03;102845;1312;24381;-58
2021/11/16 04:29:00;;;;;;;118.10;50.30;;;;;;;5.69;87.20;101344.89;106815;1314;22542;-60
2021/11/16 04:31:31;;;;;;;124.10;46.10;;;;;;;5.68;87.18;101345.70;106803;1311;22562;-57
2021/11/16 04:34:06;;;;;;;112.30;45.70;;;;;;;5.67;87.18;101334.08;102778;1311;5467420;-58
2021/11/16 04:36:37;;;;;;;121.40;48.80;;;;;;;5.68;87.14;101335.16;106738;1309;22468;-58
2021/11/16 04:39:08;;;;;;;118.20;48.40;;;;;;;5.69;87.12;101328.04;106853;1316;22418;-58
2021/11/16 04:41:40;;;;;;;127.30;56.60;;;;;;;5.70;87.10;101325.88;106486;1313;22466;-58
2021/11/16 04:44:11;;;;;;;136.80;59.40;;;;;;;5.71;87.10;101323.95;106863;1315;22415;-58
2021/11/16 04:46:44;;;;;;;131.00;56.70;;;;;;;5.71;87.07;101330.45;106852;1311;22554;-58
2021/11/16 04:49:21;;;;;;;130.90;56.30;;;;;;;5.70;87.10;101336.65;106859;1315;22573;-58
2021/11/16 04:52:11;;;;;;;129.90;56.10;;;;;;;5.71;87.09;101339.55;106862;1310;22273;-57
2021/11/16 05:03:23;;;;;;;107.40;42.70;;;;;;;5.75;87.14;101345.11;106248;1317;22300;-57
2021/11/16 05:05:56;;;;;;;101.60;39.30;;;;;;;5.77;87.06;101342.72;106322;1317;23224;-57
2021/11/16 05:08:27;;;;;;;92.40;39.00;;;;;;;5.79;87.13;101343.17;106313;1317;22911;-57
2021/11/16 05:10:57;;;;;;;101.60;40.00;;;;;;;5.79;87.06;101345.63;106284;1321;22289;-58
2021/11/16 05:13:28;;;;;;;111.00;40.90;;;;;;;5.81;87.08;101343.05;106212;1316;22432;-58
2021/11/16 05:15:59;;;;;;;97.30;39.20;;;;;;;5.83;87.02;101342.40;106276;1322;23233;-58
2021/11/16 05:18:31;;;;;;;101.40;37.10;;;;;;;5.84;86.99;101338.59;106255;1316;22359;-58
2021/11/16 05:21:02;;;;;;;101.40;39.40;;;;;;;5.82;86.96;101336.94;106292;1322;23302;-58
2021/11/16 05:23:36;;;;;;;106.70;41.50;;;;;;;5.80;86.96;101338.95;106287;1322;23082;-58
2021/11/16 05:26:08;;;;;;;104.00;40.40;;;;;;;5.81;87.00;101342.58;106311;1322;22338;-58
2021/11/16 05:28:39;;;;;;;105.00;41.60;;;;;;;5.79;87.05;101343.09;106242;1316;22423;-58
2021/11/16 05:31:09;;;;;;;103.10;42.20;;;;;;;5.79;87.10;101347.36;106290;1317;23164;-58
2021/11/16 05:33:42;;;;;;;108.00;41.20;;;;;;;5.81;87.13;101345.91;106888;1311;22437;-58
2021/11/16 05:36:15;;;;;;;96.70;38.10;;;;;;;5.82;87.07;101347.23;106900;1312;22518;-57
2021/11/16 05:38:47;;;;;;;93.40;36.80;;;;;;;5.83;87.10;101350.87;106887;1308;22286;-58
2021/11/16 05:41:19;;;;;;;93.70;37.90;;;;;;;5.83;87.06;101348.26;106894;1313;22495;-58
2021/11/16 05:43:51;;;;;;;96.80;38.40;;;;;;;5.83;87.13;101343.27;106891;1312;22557;-58
2021/11/16 05:46:23;;;;;;;91.00;35.70;;;;;;;5.83;87.08;101339.77;106869;1315;23601;-58
2021/11/16 05:48:56;;;;;;;102.40;38.10;;;;;;;5.83;87.09;101338.59;106889;1312;22248;-57
2021/11/16 05:51:29;;;;;;;98.10;39.20;;;;;;;5.82;87.10;101334.80;106872;1311;22508;-57
2021/11/16 05:54:02;;;;;;;98.50;38.00;;;;;;;5.81;87.12;101334.66;106864;1314;22526;-58
2021/11/16 05:56:35;;;;;;;97.60;37.90;;;;;;;5.83;87.15;101335.27;106886;1309;23289;-58
2021/11/16 05:59:06;;;;;;;99.00;36.10;;;;;;;5.84;87.09;101334.32;106843;1313;22429;-58
2021/11/16 06:01:37;;;;;;;91.90;36.70;;;;;;;5.84;87.09;101327.42;106894;1309;22458;-58
2021/11/16 06:04:09;;;;;;;98.10;34.30;;;;;;;5.85;87.13;101327.34;106863;1316;22444;-58
2021/11/16 06:06:40;;;;;;;101.00;39.20;;;;;;;5.85;87.11;101329.31;106875;1313;22530;-58
2021/11/16 06:09:12;;;;;;;102.10;37.30;;;;;;;5.85;87.15;101330.20;106889;1316;22396;-63
2021/11/16 06:11:42;;;;;;;99.10;39.70;;;;;;;5.85;87.10;101336.30;106794;1314;22573;-58
2021/11/16 06:14:13;;;;;;;99.80;38.70;;;;;;;5.85;87.12;101334.00;106879;1311;23131;-58
2021/11/16 06:16:44;;;;;;;99.10;40.30;;;;;;;5.86;87.09;101338.97;106885;1315;22253;-58
2021/11/16 06:19:19;;;;;;;88.40;38.40;;;;;;;5.86;87.08;101338.32;106860;1315;23110;-57
2021/11/16 06:21:50;;;;;;;107.40;38.70;;;;;;;5.86;87.13;101338.40;106880;1313;22285;-58
2021/11/16 06:24:22;;;;;;;103.00;38.20;;;;;;;5.86;87.07;101339.90;106500;1311;22451;-58
2021/11/16 06:26:52;;;;;;;91.90;35.10;;;;;;;5.85;87.10;101344.60;106878;1309;22417;-58
2021/11/16 06:29:23;;;;;;;87.60;35.20;;;;;;;5.85;87.14;101347.63;106879;1312;23164;-58
2021/11/16 06:31:54;;;;;;;85.80;33.50;;;;;;;5.85;87.12;101346.43;106846;1315;22498;-58
2021/11/16 06:34:26;;;;;;;90.20;35.00;;;;;;;5.86;87.14;101351.96;106832;1316;22709;-58
2021/11/16 06:36:57;;;;;;;94.90;35.70;;;;;;;5.87;87.12;101359.54;106837;1314;22408;-58
2021/11/16 06:39:30;;;;;;;85.50;33.00;;;;;;;5.87;87.16;101360.63;106854;1315;23654;-58
2021/11/16 06:42:02;;;;;;;94.30;37.70;;;;;;;5.89;87.09;101358.95;106869;1315;22406;-58
2021/11/16 06:44:33;;;;;;;88.80;35.00;;;;;;;5.89;87.09;101356.89;106757;1313;22278;-58
2021/11/16 06:47:04;;;;;;;86.30;34.40;;;;;;;5.91;87.20;101357.34;106837;1313;22279;-58
2021/11/16 06:49:40;;;;;;;95.30;36.70;;;;;;;5.90;87.15;101361.45;106893;1312;22447;-58
2021/11/16 06:52:11;;;;;;;93.40;35.40;;;;;;;5.90;87.15;101355.05;106902;1316;22374;-58
2021/11/16 06:54:42;;;;;;;95.70;37.20;;;;;;;5.92;87.21;101359.30;106928;1316;22443;-58
2021/11/16 06:57:14;;;;;;;85.30;36.20;;;;;;;5.94;87.19;101361.41;106871;1315;23037;-58
2021/11/16 06:59:45;;;;;;;97.20;37.90;;;;;;;5.96;87.12;101360.19;106896;1315;22498;-58
2021/11/16 07:02:22;;;;;;;98.90;40.00;;;;;;;5.96;87.13;101362.16;106859;1315;23072;-58
2021/11/16 07:04:53;;;;;;;100.30;38.40;;;;;;;5.97;87.16;101363.25;106393;1316;23234;-58
2021/11/16 07:07:24;;;;;;;91.80;35.50;;;;;;;5.98;87.24;101366.10;106875;1315;23565;-59
2021/11/16 07:10:00;;;;;;;96.40;36.60;;;;;;;5.99;87.19;101362.91;106876;1315;22572;-59
2021/11/16 07:12:31;;;;;;;89.70;36.50;;;;;;;6.02;87.26;101359.22;106831;1316;22289;-59
2021/11/16 07:15:05;;;;;;;87.90;33.50;;;;;;;6.04;87.28;101360.59;106869;1313;22284;-59
2021/11/16 07:17:36;;;;;;;89.20;33.90;;;;;;;6.04;87.15;101357.67;106884;1316;22557;-59
2021/11/16 07:20:10;;;;;;;85.60;31.90;;;;;;;6.03;87.10;101354.59;106837;1316;22924;-59
2021/11/16 07:22:41;;;;;;;76.90;31.50;;;;;;;6.03;87.17;101355.55;106835;1316;23118;-59
2021/11/16 07:25:16;;;;;;;86.60;32.10;;;;;;;6.05;87.20;101354.02;106795;1314;23209;-59
2021/11/16 07:27:51;;;;;;;92.90;35.80;;;;;;;6.07;87.23;101347.89;106821;1316;22435;-62
2021/11/16 07:30:25;;;;;;;87.50;33.40;;;;;;;6.09;87.20;101346.11;106824;1316;22541;-59
2021/11/16 07:33:00;;;;;;;96.50;36.90;;;;;;;6.09;87.19;101340.96;105274;1316;25428;-60
2021/11/16 07:35:34;;;;;;;83.10;32.50;;;;;;;6.12;87.20;101340.20;102970;1314;22752;-60
2021/11/16 07:38:08;;;;;;;92.40;35.40;;;;;;;6.11;87.16;101341.40;103288;1315;22691;-58
2021/11/16 07:40:43;;;;;;;104.40;38.20;;;;;;;6.09;87.18;101344.12;103263;1314;22561;-59
2021/11/16 07:43:17;;;;;;;99.00;38.30;;;;;;;6.10;87.26;101348.01;103166;1313;25458;-60
2021/11/16 07:45:51;;;;;;;102.70;39.00;;;;;;;6.12;87.35;101353.11;103675;1316;25180;-60
2021/11/16 07:48:24;;;;;;;92.80;35.80;;;;;;;6.13;87.31;101360.45;103090;1314;22600;-59
2021/11/16 07:50:57;;;;;;;97.90;37.40;;;;;;;6.14;87.24;101354.91;103330;1315;22808;-60
2021/11/16 07:53:32;;;;;;;100.40;38.00;;;;;;;6.13;87.27;101359.27;103150;1315;25251;-60
2021/11/16 07:56:09;;;;;;;96.90;37.20;;;;;;;6.12;87.31;101353.90;103239;1312;22573;-60
2021/11/16 07:58:42;;;;;;;99.50;41.30;;;;;;;6.11;87.27;101353.99;103068;1314;22587;-59
2021/11/16 08:01:21;;;;;;;107.90;40.40;;;;;;;6.11;87.45;101349.40;103074;1315;25225;-61
2021/11/16 08:03:57;;;;;;;100.00;38.50;;;;;;;6.13;87.48;101348.58;103004;1314;22693;-62
2021/11/16 08:06:32;;;;;;;103.20;38.40;;;;;;;6.13;87.39;101345.87;103089;1310;22563;-62
2021/11/16 08:09:15;;;;;;;103.80;41.80;;;;;;;6.14;87.51;101341.67;103159;1311;22576;-60
2021/11/16 08:11:49;;;;;;;102.00;35.60;;;;;;;6.16;87.52;101337.83;103067;1313;24030;-61
2021/11/16 08:14:20;;;;;;;93.30;37.60;;;;;;;6.17;87.49;101334.16;103088;1311;22669;-60
2021/11/16 08:16:56;;;;;;;89.40;35.60;;;;;;;6.17;87.54;101329.16;103101;1315;22674;-60
2021/11/16 08:19:30;;;;;;;89.80;36.10;;;;;;;6.19;87.58;101322.57;103393;1312;25188;-60
2021/11/16 08:22:06;;;;;;;99.30;39.20;;;;;;;6.19;87.57;101319.54;103294;1315;25299;-61
2021/11/16 08:24:41;;;;;;;99.30;37.70;;;;;;;6.20;87.52;101324.54;103202;1315;22637;-61
2021/11/16 08:27:14;;;;;;;105.90;39.00;;;;;;;6.19;87.45;101323.20;103194;1314;22623;-61
2021/11/16 08:29:50;;;;;;;87.50;33.40;;;;;;;6.20;87.57;101323.81;103095;1315;22587;-61
2021/11/16 08:32:22;;;;;;;101.40;37.10;;;;;;;6.20;87.42;101320.57;103194;1315;26640;-61
2021/11/16 08:34:55;;;;;;;96.80;33.70;;;;;;;6.20;87.53;101315.88;103131;1312;22671;-61
2021/11/16 08:37:31;;;;;;;102.60;36.80;;;;;;;6.22;87.46;101313.40;103326;1314;24506;-60
2021/11/16 08:40:06;;;;;;;95.20;40.30;;;;;;;6.26;87.55;101316.89;103329;1312;26582;-60
2021/11/16 08:42:38;;;;;;;95.50;36.20;;;;;;;6.29;87.59;101315.64;103185;1311;22569;-61
2021/11/16 08:45:13;;;;;;;95.50;34.80;;;;;;;6.31;87.46;101309.44;103095;1311;25357;-61
2021/11/16 08:47:47;;;;;;;94.90;37.20;;;;;;;6.31;87.42;101308.25;103154;1312;24422;-60
2021/11/16 08:50:27;;;;;;;106.20;41.30;;;;;;;6.33;87.41;101307.27;103129;1312;22596;-59
2021/11/16 08:52:59;;;;;;;101.30;37.00;;;;;;;6.34;87.39;101308.83;103146;1315;22565;-61
2021/11/16 08:55:34;;;;;;;104.70;39.60;;;;;;;6.34;87.38;101312.46;103522;1311;25490;-59
2021/11/16 08:58:08;;;;;;;107.40;39.50;;;;;;;6.35;87.45;101308.97;103284;1316;22570;-59
2021/11/16 09:00:42;;;;;;;116.70;43.50;;;;;;;6.38;87.54;101307.23;103139;1314;26576;-60
2021/11/16 09:03:14;;;;;;;119.10;44.80;;;;;;;6.41;87.50;101304.88;103374;1310;25434;-61
2021/11/16 09:05:48;;;;;;;113.50;46.40;;;;;;;6.45;87.44;101306.22;103347;1315;24238;-61
2021/11/16 09:08:22;;;;;;;113.90;40.90;;;;;;;6.48;87.26;101308.30;103201;1315;22570;-60
2021/11/16 09:10:58;;;;;;;114.30;44.70;;;;;;;6.49;87.27;101302.92;103246;1310;22599;-60
2021/11/16 09:13:32;;;;;;;108.20;42.40;;;;;;;6.50;87.20;101305.91;103468;1313;22669;-60
2021/11/16 09:16:09;;;;;;;98.10;36.20;;;;;;;6.50;87.23;101303.28;103333;1316;25513;-59
2021/11/16 09:18:42;;;;;;;99.60;39.30;;;;;;;6.51;87.17;101290.66;103256;1314;22622;-60
2021/11/16 09:21:16;;;;;;;89.20;35.10;;;;;;;6.52;87.06;101293.98;103280;1312;23130;-62
2021/11/16 09:23:51;;;;;;;93.60;36.30;;;;;;;6.52;87.04;101296.82;103541;1314;25329;-60
2021/11/16 09:26:25;;;;;;;89.70;35.10;;;;;;;6.52;87.04;101297.05;103219;1315;22563;-60
2021/11/16 09:28:59;;;;;;;85.50;37.00;;;;;;;6.55;87.04;101294.86;103307;1314;22577;-60
2021/11/16 09:31:34;;;;;;;90.10;35.90;;;;;;;6.59;87.16;101294.61;103395;1312;22590;-63
2021/11/16 09:34:08;;;;;;;82.50;34.70;;;;;;;6.60;86.92;101292.70;103335;1314;22577;-60
2021/11/16 09:36:40;;;;;;;88.30;35.60;;;;;;;6.63;87.12;101294.79;103313;1314;24338;-60
2021/11/16 09:39:16;;;;;;;91.40;36.50;;;;;;;6.66;87.03;101295.13;103218;1313;22593;-61
2021/11/16 09:41:50;;;;;;;85.90;33.30;;;;;;;6.68;86.91;101286.60;103289;1313;22995;-62
2021/11/16 09:44:25;;;;;;;85.80;34.90;;;;;;;6.70;87.00;101290.91;103313;1315;22570;-62
2021/11/16 09:46:59;;;;;;;87.50;32.80;;;;;;;6.72;86.78;101291.99;103216;1314;25323;-60
2021/11/16 09:49:36;;;;;;;81.10;30.40;;;;;;;6.71;86.74;101292.16;103413;1310;24325;-62
2021/11/16 09:52:11;;;;;;;84.30;35.50;;;;;;;6.70;86.60;101283.94;103257;1315;25280;-61
2021/11/16 09:54:52;;;;;;;74.50;30.60;;;;;;;6.71;86.67;101281.94;103319;1316;24335;-60
2021/11/16 09:57:24;;;;;;;;;;;;;;;6.68;86.47;101274.30;103586;1315;22574;-60
2021/11/16 10:00:05;;;;;;;72.30;30.30;;;;;;;6.67;86.55;101273.30;103288;1314;22586;-59
2021/11/16 10:02:37;;;;;;;77.20;30.60;;;;;;;6.66;86.53;101268.73;103268;1315;22599;-62
2021/11/16 10:05:18;;;;;;;84.60;34.30;;;;;;;6.67;86.61;101271.08;103125;1312;22550;-59
2021/11/16 10:07:50;;;;;;;84.30;38.40;;;;;;;6.70;86.79;101264.66;103255;1312;25359;-60
2021/11/16 10:10:25;;;;;;;104.50;49.60;;;;;;;6.73;86.72;101265.25;103353;1314;22714;-61
2021/11/16 10:12:59;;;;;;;101.30;48.70;;;;;;;6.76;86.70;101260.81;103723;1315;25400;-60
2021/11/16 10:15:33;;;;;;;88.30;37.90;;;;;;;6.78;86.74;101259.27;103850;1313;25255;-60
2021/11/16 10:18:05;;;;;;;91.70;39.60;;;;;;;6.81;86.63;101255.65;103704;1314;22563;-62
2021/11/16 10:20:42;;;;;;;98.40;46.50;;;;;;;6.84;86.51;101257.00;103503;1316;22579;-61
2021/11/16 10:23:15;;;;;;;93.60;44.00;;;;;;;6.85;86.35;101252.86;103532;1312;22694;-61
2021/11/16 10:25:55;;;;;;;99.30;45.10;;;;;;;6.83;86.18;101253.00;103583;1312;24214;-61
2021/11/16 10:28:26;;;;;;;94.80;46.50;;;;;;;6.82;86.18;101250.32;103502;1316;22603;-60
2021/11/16 10:30:59;;;;;;;91.50;39.40;;;;;;;6.82;86.23;101241.20;103745;1315;25265;-63
2021/11/16 10:33:33;;;;;;;117.70;58.00;;;;;;;6.83;86.28;101235.94;103769;1314;22602;-60
2021/11/16 10:36:07;;;;;;;94.40;42.70;;;;;;;6.84;86.29;101238.14;103462;1315;22641;-62
2021/11/16 10:38:44;;;;;;;88.70;42.50;;;;;;;6.84;86.18;101236.00;103673;1314;24408;-61
2021/11/16 10:41:17;;;;;;;87.10;39.50;;;;;;;6.82;86.06;101238.64;103644;1315;23763;-62
2021/11/16 10:43:57;;;;;;;87.00;40.70;;;;;;;6.80;85.99;101239.47;103769;1315;22587;-60
2021/11/16 10:46:32;;;;;;;79.30;36.90;;;;;;;6.79;86.03;101227.21;103391;1315;22581;-62
2021/11/16 10:49:09;;;;;;;78.40;36.20;;;;;;;6.79;86.21;101228.56;103357;1315;22826;-60
2021/11/16 10:51:43;;;;;;;89.00;38.60;;;;;;;6.81;86.21;101227.27;103339;1314;22643;-60
2021/11/16 10:54:16;;;;;;;73.60;32.90;;;;;;;6.82;86.02;101224.14;103587;1315;25255;-62
2021/11/16 10:56:49;;;;;;;73.00;34.50;;;;;;;6.83;86.10;101228.95;103639;1314;25293;-60
2021/11/16 10:59:27;;;;;;;84.70;36.30;;;;;;;6.86;86.26;101219.85;103572;1314;22998;-62
2021/11/16 11:02:01;;;;;;;85.90;38.60;;;;;;;6.92;86.43;101217.02;103454;1315;24235;-62
2021/11/16 11:04:40;;;;;;;83.70;37.80;;;;;;;6.98;86.25;101213.55;103588;1316;22619;-62
2021/11/16 11:07:16;;;;;;;81.80;35.50;;;;;;;7.01;86.13;101208.64;103461;1314;25059;-62
2021/11/16 11:09:58;;;;;;;72.10;31.40;;;;;;;7.06;86.25;101208.61;103591;1314;23028;-65
2021/11/16 11:12:32;;;;;;;75.40;32.60;;;;;;;7.10;86.16;101203.27;103401;1315;24211;-61
2021/11/16 11:15:04;;;;;;;82.40;35.50;;;;;;;7.13;86.04;101196.85;103487;1310;25316;-63
2021/11/16 11:17:38;;;;;;;89.50;39.80;;;;;;;7.17;86.06;101191.13;103690;1313;24245;-62
2021/11/16 11:20:20;;;;;;;93.00;44.10;;;;;;;7.21;85.96;101185.48;103572;1315;22588;-62
2021/11/16 11:22:51;;;;;;;101.40;50.90;;;;;;;7.24;85.89;101182.63;103440;1315;22685;-62
2021/11/16 11:25:37;;;;;;;113.90;55.10;;;;;;;7.25;85.65;101177.92;103418;1314;25601;-61
2021/11/16 11:28:29;;;;;;;102.60;49.80;;;;;;;7.25;85.85;101184.67;103412;1315;23359;-62
2021/11/16 11:31:00;;;;;;;84.20;39.70;;;;;;;7.29;85.92;101177.83;103380;1314;22941;-64
2021/11/16 11:33:48;;;;;;;103.00;47.60;;;;;;;7.29;85.76;101176.71;103248;1316;22651;-61
2021/11/16 11:36:26;;;;;;;103.50;50.50;;;;;;;7.30;85.65;101175.88;103768;1314;25382;-61
2021/11/16 11:38:57;;;;;;;86.80;41.40;;;;;;;7.32;85.57;101174.26;104360;1315;22587;-61